Aérodrome :
LOGIN :

S'inscrire | Disclaimer

   EN    FR    IT 

 










Légende :    VFR   VFR Marginal   IFR   IFR Intensif   IFR Très Intensif
Visi : 
Plafond : 
>= 8 km
>= 3000ft
5 à 8 km
1000 à 3000 ft
1500m à 5 km
500 à 1000 ft
800 à 1500m
200 à 500 ft
< 800m
< 200 ft
Symboles :   Orages  Brouillard  Fortes neiges  Fortes précipitations  Vent > 20 kt
SIGMETs :   Divers  Orages  Givrage  Turbulence  Onde Orograph.  Cendres Volcan.






- Altitude de l'aérodrome : 1084 ft
- Code IATA : EPL


LFSG - Épinal-Mirecourt

DERNIER METAR :
  • 161200Z AUTO 05012KT 030V090 9999 FEW042 BKN058 06/M02 Q1023

METARs EXPIRÉS :
  • 161130Z AUTO 07014KT 9999 FEW036 BKN056 06/M02 Q1023
  • 161100Z AUTO 05010KT 9999 FEW039 BKN054 07/M01 Q1023
  • 161030Z AUTO 06015KT 9999 FEW039 BKN050 07/M02 Q1024
  • 161000Z AUTO 06012KT 9999 SCT033 BKN042 06/M01 Q1024
  • 160930Z AUTO 05013KT 9999 SCT036 OVC042 05/M02 Q1024

TAF N/A



MET'MAP, la Météo Aéronautique d'un coup d'oeil ! - Copyright ORBIFLY Décembre 2007 - Disclaimer

ORBIFLY MET'MAP TEAM :

Programmation & Développement : Alexandra Zaïnal
Sur une idée originale de : Baudouin d'Aumeries
Assistance à la programmation : Marc-Olivier Méhu
Soutien technique & logistique : Manuel Goepfert

Contact : metmap@orbifly.com




SOURCES & CREDITS :

   NOAA